createdAt,value
2022-11-15T00:03:43.761Z,91.77
2022-11-15T00:09:06.400Z,91.13
2022-11-15T00:14:28.570Z,92.57
2022-11-15T00:19:50.792Z,85.90
2022-11-15T00:25:13.223Z,91.97
2022-11-15T00:30:36.112Z,94.75
2022-11-15T00:35:59.626Z,94.40
2022-11-15T00:41:23.818Z,95.60
2022-11-15T00:46:46.005Z,92.08
2022-11-15T00:52:08.330Z,89.25
2022-11-15T00:57:31.204Z,89.65
2022-11-15T01:02:54.188Z,90.97
2022-11-15T01:08:20.110Z,90.13
2022-11-15T01:13:45.951Z,98.60
2022-11-15T01:19:08.209Z,103.07
2022-11-15T01:24:32.298Z,95.25
2022-11-15T01:29:54.859Z,103.83
2022-11-15T01:35:17.219Z,97.65
2022-11-15T01:40:39.399Z,103.97
2022-11-15T01:46:04.608Z,104.43
2022-11-15T01:51:30.682Z,111.95
2022-11-15T01:56:58.076Z,105.52
2022-11-15T02:02:20.483Z,110.65
2022-11-15T02:07:43.849Z,104.87
2022-11-15T02:13:07.273Z,110.35
2022-11-15T02:18:34.515Z,105.55
2022-11-15T02:24:31.863Z,117.80
2022-11-15T02:30:40.970Z,123.30
2022-11-15T02:36:26.284Z,118.55
2022-11-15T02:41:59.246Z,123.60
2022-11-15T02:47:24.693Z,118.37
2022-11-15T02:52:47.251Z,121.17
2022-11-15T02:58:38.041Z,120.80
2022-11-15T03:09:45.359Z,114.72
2022-11-15T03:15:27.430Z,119.35
2022-11-15T03:20:51.170Z,122.82
2022-11-15T03:26:16.165Z,117.25
2022-11-15T03:31:51.537Z,125.33
2022-11-15T03:37:15.488Z,123.80
2022-11-15T03:42:48.297Z,124.20
2022-11-15T03:48:27.559Z,122.92
2022-11-15T03:53:50.206Z,113.60
2022-11-15T03:59:12.393Z,91.87
2022-11-15T04:04:34.577Z,91.02
2022-11-15T04:10:06.808Z,95.00
2022-11-15T04:15:34.889Z,89.25
2022-11-15T04:21:14.888Z,87.20
2022-11-15T04:26:39.080Z,101.90
2022-11-15T04:32:01.276Z,95.83
2022-11-15T04:37:23.529Z,101.20
2022-11-15T04:42:47.424Z,91.93
2022-11-15T04:48:09.595Z,90.50
2022-11-15T04:53:32.788Z,89.62
2022-11-15T04:58:57.839Z,90.62
2022-11-15T05:04:21.583Z,79.70
2022-11-15T05:09:43.825Z,88.20
2022-11-15T05:15:06.029Z,86.05
2022-11-15T05:20:28.901Z,90.70
2022-11-15T05:25:51.197Z,86.57
2022-11-15T05:31:20.381Z,84.30
2022-11-15T05:36:50.728Z,87.70
2022-11-15T05:42:21.312Z,90.60
2022-11-15T05:47:46.779Z,90.07
2022-11-15T05:53:09.893Z,92.82
2022-11-15T05:58:32.893Z,87.37
2022-11-15T06:03:55.109Z,86.97
2022-11-15T06:09:17.378Z,91.90
2022-11-15T06:14:39.665Z,105.75
2022-11-15T06:20:01.973Z,91.02
2022-11-15T06:25:24.271Z,95.38
2022-11-15T06:30:50.530Z,100.50
2022-11-15T06:36:17.554Z,96.37
2022-11-15T06:41:38.639Z,97.72
2022-11-15T06:47:00.847Z,100.35
2022-11-15T06:52:23.513Z,108.47
2022-11-15T06:57:47.451Z,98.70
2022-11-15T07:03:11.505Z,103.55
2022-11-15T07:08:35.165Z,104.70
2022-11-15T07:13:57.441Z,105.63
2022-11-15T07:19:19.693Z,93.47
2022-11-15T07:24:41.857Z,88.30
2022-11-15T07:30:04.699Z,91.65
2022-11-15T07:35:26.996Z,91.08
2022-11-15T07:40:50.103Z,92.72
2022-11-15T07:46:13.057Z,95.77
2022-11-15T07:51:36.039Z,106.33
2022-11-15T07:57:02.550Z,101.55
2022-11-15T08:02:26.428Z,98.15
2022-11-15T08:07:51.804Z,84.47
2022-11-15T08:13:19.288Z,96.50
2022-11-15T08:18:41.885Z,89.05
2022-11-15T08:24:04.143Z,88.00
2022-11-15T08:29:26.491Z,96.27
2022-11-15T08:34:48.757Z,99.20
2022-11-15T08:40:11.687Z,99.65
2022-11-15T08:45:34.088Z,98.30
2022-11-15T08:50:56.836Z,102.27
2022-11-15T08:56:22.698Z,86.25
2022-11-15T09:01:44.994Z,92.85
2022-11-15T09:07:07.938Z,85.25
2022-11-15T09:12:30.207Z,83.65
2022-11-15T09:17:52.474Z,76.82
2022-11-15T09:23:16.415Z,82.15
2022-11-15T09:28:39.483Z,73.50
2022-11-15T09:34:05.720Z,116.17
2022-11-15T09:39:28.023Z,98.85
2022-11-15T09:45:30.936Z,90.55
2022-11-15T09:51:02.499Z,89.10
2022-11-15T09:56:28.692Z,106.90
2022-11-15T10:01:58.810Z,93.05
2022-11-15T10:07:47.210Z,95.53
2022-11-15T10:13:12.137Z,97.20
2022-11-15T10:18:44.427Z,96.32
2022-11-15T10:24:07.302Z,82.08
2022-11-15T10:29:33.382Z,81.78
2022-11-15T10:34:57.146Z,83.67
2022-11-15T10:40:29.369Z,81.55
2022-11-15T10:45:54.566Z,78.15
2022-11-15T10:51:20.133Z,77.85
2022-11-15T10:56:43.151Z,87.02
2022-11-15T11:02:06.623Z,90.20
2022-11-15T11:07:33.207Z,77.25
2022-11-15T11:12:57.271Z,82.55
2022-11-15T11:18:38.541Z,80.65
2022-11-15T11:24:31.496Z,74.10
2022-11-15T11:30:18.202Z,76.35
2022-11-15T11:35:48.168Z,72.78
2022-11-15T11:41:24.205Z,81.63
2022-11-15T11:47:04.630Z,73.40
2022-11-15T11:58:22.523Z,88.30
2022-11-15T12:03:55.654Z,88.50
2022-11-15T12:09:46.585Z,86.82
2022-11-15T12:15:19.497Z,90.07
2022-11-15T12:20:45.640Z,88.42
2022-11-15T12:26:15.807Z,79.17
2022-11-15T12:31:48.772Z,78.67
2022-11-15T12:37:46.785Z,80.33
2022-11-15T12:43:44.520Z,75.70
2022-11-15T12:49:17.195Z,78.23
2022-11-15T12:54:50.111Z,177.17
2022-11-15T13:00:38.494Z,76.47
2022-11-15T13:06:07.756Z,76.67
2022-11-15T13:12:03.365Z,51.20
2022-11-15T13:17:54.823Z,80.37
2022-11-15T13:23:30.881Z,89.50
2022-11-15T13:29:00.333Z,115.33
2022-11-15T13:34:53.329Z,108.43
2022-11-15T13:40:02.933Z,104.20
2022-11-15T13:45:28.261Z,95.25
2022-11-15T13:50:54.507Z,89.50
2022-11-15T13:56:17.711Z,91.45
2022-11-15T14:01:42.699Z,88.20
2022-11-15T14:07:08.564Z,84.80
2022-11-15T14:12:46.074Z,84.15
2022-11-15T14:18:08.620Z,87.57
2022-11-15T14:23:40.108Z,83.07
2022-11-15T14:29:02.339Z,94.87
2022-11-15T14:34:25.471Z,82.17
2022-11-15T14:39:47.664Z,83.27
2022-11-15T14:45:10.332Z,89.00
2022-11-15T14:50:35.437Z,95.03
2022-11-15T14:55:57.991Z,94.23
2022-11-15T15:01:31.010Z,85.55
2022-11-15T15:06:53.870Z,84.25
2022-11-15T15:12:20.824Z,87.25
2022-11-15T15:17:43.480Z,89.28
2022-11-15T15:23:05.740Z,78.57
2022-11-15T15:28:34.022Z,83.37
2022-11-15T15:33:52.651Z,85.60
2022-11-15T15:39:16.791Z,152.65
2022-11-15T15:44:39.289Z,73.45
2022-11-15T15:50:02.387Z,75.05
2022-11-15T15:55:25.733Z,69.97
2022-11-15T16:00:48.308Z,67.15
2022-11-15T16:06:10.633Z,55.90
2022-11-15T16:11:34.593Z,59.55
2022-11-15T16:16:57.086Z,57.10
2022-11-15T16:22:19.464Z,63.37
2022-11-15T16:27:43.857Z,65.08
2022-11-15T16:33:06.526Z,62.93
2022-11-15T16:38:31.847Z,68.52
2022-11-15T16:43:55.441Z,64.77
2022-11-15T16:49:21.028Z,63.95
2022-11-15T16:54:44.423Z,62.30
2022-11-15T17:00:06.694Z,66.27
2022-11-15T17:05:30.369Z,65.53
2022-11-15T17:10:53.896Z,56.90
2022-11-15T17:16:27.609Z,58.75
2022-11-15T17:21:50.510Z,62.55
2022-11-15T17:27:13.172Z,77.08
2022-11-15T17:32:35.543Z,67.80
2022-11-15T17:37:58.177Z,64.87
2022-11-15T17:43:20.386Z,68.62
2022-11-15T17:48:43.997Z,63.65
2022-11-15T17:54:08.753Z,56.30
2022-11-15T17:59:32.137Z,54.95
2022-11-15T18:04:54.513Z,61.88
2022-11-15T18:10:16.828Z,63.58
2022-11-15T18:15:39.098Z,60.55
2022-11-15T18:21:11.686Z,64.22
2022-11-15T18:26:37.183Z,56.80
2022-11-15T18:32:00.752Z,59.65
2022-11-15T18:37:22.941Z,59.18
2022-11-15T18:42:45.142Z,67.40
2022-11-15T18:48:07.387Z,58.15
2022-11-15T18:53:30.183Z,58.13
2022-11-15T18:58:55.693Z,57.97
2022-11-15T19:04:22.593Z,55.10
2022-11-15T19:09:47.013Z,58.20
2022-11-15T19:15:11.361Z,51.10
2022-11-15T19:20:33.962Z,49.10
2022-11-15T19:26:04.495Z,49.97
2022-11-15T19:31:29.566Z,52.25
2022-11-15T19:37:03.676Z,54.08
2022-11-15T19:42:28.081Z,58.40
2022-11-15T19:47:50.707Z,47.20
2022-11-15T19:53:12.991Z,49.53
2022-11-15T19:58:36.837Z,52.55
2022-11-15T20:04:00.275Z,48.52
2022-11-15T20:09:26.523Z,47.15
2022-11-15T20:14:48.809Z,49.03
2022-11-15T20:20:12.127Z,47.38
2022-11-15T20:25:39.602Z,48.17
2022-11-15T20:31:04.695Z,42.65
2022-11-15T20:36:29.298Z,41.63
2022-11-15T20:41:51.495Z,38.58
2022-11-15T20:47:14.415Z,44.83
2022-11-15T20:52:38.961Z,38.70
2022-11-15T20:58:02.047Z,33.97
2022-11-15T21:03:27.850Z,38.17
2022-11-15T21:09:09.096Z,38.23
2022-11-15T21:14:31.839Z,38.05
2022-11-15T21:19:54.300Z,38.07
2022-11-15T21:25:16.546Z,37.75
2022-11-15T21:30:38.900Z,35.90
2022-11-15T21:36:01.829Z,43.67
2022-11-15T21:41:24.224Z,41.23
2022-11-15T21:46:48.466Z,49.30
2022-11-15T21:52:10.711Z,54.58
2022-11-15T21:57:32.888Z,56.65
2022-11-15T22:02:55.153Z,57.25
2022-11-15T22:08:17.611Z,57.93
2022-11-15T22:13:40.296Z,55.35
2022-11-15T22:19:02.919Z,58.85
2022-11-15T22:24:25.671Z,61.90
2022-11-15T22:29:48.286Z,57.25
2022-11-15T22:35:11.055Z,54.15
2022-11-15T22:40:34.039Z,60.78
2022-11-15T22:46:05.295Z,61.33
2022-11-15T22:51:28.987Z,60.33
2022-11-15T22:56:52.408Z,59.20
2022-11-15T23:02:15.423Z,61.35
2022-11-15T23:07:38.603Z,57.40
2022-11-15T23:13:19.530Z,54.25
2022-11-15T23:18:43.831Z,53.90
2022-11-15T23:24:06.466Z,52.35
2022-11-15T23:29:33.194Z,49.48
2022-11-15T23:34:57.934Z,46.23
2022-11-15T23:40:21.365Z,44.42
2022-11-15T23:45:44.579Z,46.23
2022-11-15T23:51:07.587Z,40.33
2022-11-15T23:56:34.267Z,35.50
